Time;durP1;ratioP1;P1;durP2;ratioP2;P2;SDS_P1;SDS_P2;PMS_P1;PMS_P2;Temp;Humidity;BMP_temperature;BMP_pressure;BME280_temperature;BME280_humidity;BME280_pressure;Samples;Min_cycle;Max_cycle;Signal;HPM_P1;HPM_P2
2023/03/12 00:03:14;;;;;;;18.98;10.02;;;;;;;;;;10531363;28;20047;-77
2023/03/12 00:08:34;;;;;;;31.40;12.02;;;;;;;;;;10501689;28;20036;-78
2023/03/12 00:13:56;;;;;;;18.60;9.80;;;;;;;;;;10511225;28;20040;-77
2023/03/12 00:19:17;;;;;;;14.05;8.68;;;;;;;;;;10513201;28;20043;-77
2023/03/12 00:24:38;;;;;;;27.10;11.02;;;;;;;;;;10524448;28;20428;-77
2023/03/12 00:29:59;;;;;;;16.83;10.50;;;;;;;;;;10499790;28;20036;-77
2023/03/12 00:35:19;;;;;;;25.80;10.93;;;;;;;;;;10497337;28;20047;-77
2023/03/12 00:40:40;;;;;;;16.63;9.10;;;;;;;;;;10501658;28;20039;-76
2023/03/12 00:46:01;;;;;;;20.50;10.38;;;;;;;;;;10506835;28;20397;-77
2023/03/12 00:51:22;;;;;;;14.18;9.13;;;;;;;;;;10526166;28;20047;-76
2023/03/12 00:56:45;;;;;;;16.65;9.23;;;;;;;;;;10539782;28;20036;-76
2023/03/12 01:02:06;;;;;;;23.73;10.32;;;;;;;;;;10499136;28;20040;-77
2023/03/12 01:07:27;;;;;;;14.05;8.65;;;;;;;;;;10525396;28;20044;-76
2023/03/12 01:12:48;;;;;;;26.45;10.93;;;;;;;;;;10519171;28;20485;-76
2023/03/12 01:18:09;;;;;;;20.50;9.77;;;;;;;;;;10502257;28;20039;-77
2023/03/12 01:23:30;;;;;;;29.02;10.70;;;;;;;;;;10522550;28;20031;-77
2023/03/12 01:28:51;;;;;;;17.20;9.95;;;;;;;;;;10528971;28;20054;-77
2023/03/12 01:34:12;;;;;;;14.50;9.13;;;;;;;;;;10518920;28;20484;-77
2023/03/12 01:39:33;;;;;;;17.30;10.35;;;;;;;;;;10508382;28;20059;-77
2023/03/12 01:44:58;;;;;;;16.50;10.45;;;;;;;;;;10523281;28;20044;-77
2023/03/12 01:50:19;;;;;;;24.63;10.32;;;;;;;;;;10511339;28;20033;-77
2023/03/12 01:55:40;;;;;;;18.95;10.73;;;;;;;;;;10524799;28;20044;-77
2023/03/12 02:01:01;;;;;;;26.15;11.02;;;;;;;;;;10509404;28;20043;-77
2023/03/12 02:06:25;;;;;;;15.02;10.13;;;;;;;;;;10507822;28;20032;-77
2023/03/12 02:11:46;;;;;;;19.70;10.20;;;;;;;;;;10514720;28;20036;-77
2023/03/12 02:17:07;;;;;;;20.55;9.68;;;;;;;;;;10509323;28;20508;-77
2023/03/12 02:22:28;;;;;;;20.27;9.48;;;;;;;;;;10503282;28;20044;-77
2023/03/12 02:27:49;;;;;;;18.88;10.35;;;;;;;;;;10506329;28;20036;-77
2023/03/12 02:33:10;;;;;;;24.98;10.77;;;;;;;;;;10496676;28;20016;-77
2023/03/12 02:38:34;;;;;;;16.73;9.27;;;;;;;;;;10508305;28;20412;-77
2023/03/12 02:44:04;;;;;;;16.50;9.13;;;;;;;;;;10499392;28;20045;-77
2023/03/12 02:49:26;;;;;;;14.48;9.05;;;;;;;;;;10503131;28;20028;-77
2023/03/12 02:54:47;;;;;;;18.83;10.93;;;;;;;;;;10528309;27;20049;-77
2023/03/12 03:00:11;;;;;;;16.35;9.43;;;;;;;;;;10511497;28;20501;-77
2023/03/12 03:05:32;;;;;;;24.27;11.85;;;;;;;;;;10509412;28;20040;-77
2023/03/12 03:10:54;;;;;;;40.83;13.75;;;;;;;;;;10508903;28;20036;-77
2023/03/12 03:16:14;;;;;;;19.17;9.80;;;;;;;;;;10509593;28;20040;-77
2023/03/12 03:21:35;;;;;;;16.85;10.27;;;;;;;;;;10500616;28;20024;-77
2023/03/12 03:26:56;;;;;;;20.27;9.77;;;;;;;;;;10491415;28;20024;-77
2023/03/12 03:32:17;;;;;;;21.70;10.68;;;;;;;;;;10512144;28;20499;-76
2023/03/12 03:37:38;;;;;;;16.70;9.90;;;;;;;;;;10506463;28;20032;-78
2023/03/12 03:42:59;;;;;;;27.75;11.57;;;;;;;;;;10501623;28;20035;-77
2023/03/12 03:48:20;;;;;;;20.73;10.75;;;;;;;;;;10506918;28;20044;-77
2023/03/12 03:53:41;;;;;;;12.45;9.45;;;;;;;;;;10512779;28;20047;-78
2023/03/12 03:59:02;;;;;;;15.05;10.25;;;;;;;;;;10536019;28;20036;-72
2023/03/12 04:04:24;;;;;;;15.60;10.27;;;;;;;;;;10526035;28;20711;-73
2023/03/12 04:09:44;;;;;;;21.35;11.45;;;;;;;;;;10496227;28;20665;-72
2023/03/12 04:15:06;;;;;;;14.95;10.00;;;;;;;;;;10511158;28;20032;-72
2023/03/12 04:20:26;;;;;;;22.65;11.35;;;;;;;;;;10508077;28;20047;-72
2023/03/12 04:25:47;;;;;;;21.50;10.40;;;;;;;;;;10496192;28;20040;-72
2023/03/12 04:31:09;;;;;;;19.48;11.27;;;;;;;;;;10514938;28;20086;-72
2023/03/12 04:36:30;;;;;;;26.23;11.45;;;;;;;;;;10516815;28;20485;-72
2023/03/12 04:41:51;;;;;;;21.98;10.90;;;;;;;;;;10505946;28;20028;-72
2023/03/12 04:47:12;;;;;;;27.67;11.52;;;;;;;;;;10508968;28;20064;-72
2023/03/12 04:52:33;;;;;;;20.75;11.13;;;;;;;;;;10531386;27;20047;-72
2023/03/12 04:57:53;;;;;;;22.60;10.98;;;;;;;;;;10505012;28;20035;-72
2023/03/12 05:03:15;;;;;;;24.63;10.25;;;;;;;;;;10523954;28;20501;-72
2023/03/12 05:08:35;;;;;;;15.85;10.68;;;;;;;;;;10503041;28;20035;-73
2023/03/12 05:13:56;;;;;;;17.48;10.50;;;;;;;;;;10518282;28;20029;-72
2023/03/12 05:19:17;;;;;;;16.00;9.27;;;;;;;;;;10516824;28;20032;-72
2023/03/12 05:24:38;;;;;;;24.05;11.20;;;;;;;;;;10497653;28;20409;-72
2023/03/12 05:29:59;;;;;;;13.63;10.15;;;;;;;;;;10523779;28;20032;-73
2023/03/12 05:35:20;;;;;;;16.20;9.40;;;;;;;;;;10495954;28;20036;-72
2023/03/12 05:40:41;;;;;;;15.40;10.27;;;;;;;;;;10509232;28;20404;-72
2023/03/12 05:46:03;;;;;;;19.98;10.73;;;;;;;;;;10516086;28;20037;-72
2023/03/12 05:51:23;;;;;;;24.02;11.13;;;;;;;;;;10512401;28;20425;-73
2023/03/12 05:56:44;;;;;;;17.17;9.77;;;;;;;;;;10519785;28;20044;-72
2023/03/12 06:02:05;;;;;;;15.10;9.43;;;;;;;;;;10533454;28;20055;-77
2023/03/12 06:07:26;;;;;;;18.65;10.38;;;;;;;;;;10530692;28;20039;-77
2023/03/12 06:12:47;;;;;;;17.35;9.32;;;;;;;;;;10478053;28;20043;-77
2023/03/12 06:18:08;;;;;;;18.30;10.07;;;;;;;;;;10522893;27;20047;-77
2023/03/12 06:23:29;;;;;;;19.40;11.57;;;;;;;;;;10497604;28;20032;-77
2023/03/12 06:28:50;;;;;;;22.73;11.45;;;;;;;;;;10512696;28;20409;-77
2023/03/12 06:34:11;;;;;;;17.33;10.80;;;;;;;;;;10505211;28;20047;-77
2023/03/12 06:39:32;;;;;;;27.02;11.85;;;;;;;;;;10503525;28;20656;-77
2023/03/12 06:44:53;;;;;;;18.25;11.85;;;;;;;;;;10515005;28;20038;-77
2023/03/12 06:50:13;;;;;;;25.55;12.70;;;;;;;;;;10498730;28;20492;-77
2023/03/12 06:55:34;;;;;;;22.65;11.60;;;;;;;;;;10520043;27;20485;-77
2023/03/12 07:00:56;;;;;;;28.92;13.57;;;;;;;;;;10505817;28;20036;-77
2023/03/12 07:06:18;;;;;;;40.05;14.80;;;;;;;;;;10498981;28;20055;-77
2023/03/12 07:11:39;;;;;;;36.63;15.52;;;;;;;;;;10480909;28;20032;-76
2023/03/12 07:17:01;;;;;;;27.25;12.60;;;;;;;;;;10515622;28;20499;-76
2023/03/12 07:22:21;;;;;;;28.30;13.57;;;;;;;;;;10519883;27;20040;-77
2023/03/12 07:27:42;;;;;;;28.45;15.10;;;;;;;;;;10492185;28;20059;-76
2023/03/12 07:33:09;;;;;;;24.90;14.40;;;;;;;;;;10509058;28;20051;-77
2023/03/12 07:38:30;;;;;;;40.55;15.20;;;;;;;;;;10519221;28;20023;-77
2023/03/12 07:43:51;;;;;;;31.08;14.98;;;;;;;;;;10518444;27;20165;-77
2023/03/12 07:49:11;;;;;;;33.17;15.55;;;;;;;;;;10496647;28;20036;-81
2023/03/12 07:54:32;;;;;;;32.20;15.43;;;;;;;;;;10520873;28;20056;-81
2023/03/12 07:59:53;;;;;;;24.42;14.48;;;;;;;;;;10534733;28;20405;-80
2023/03/12 08:05:14;;;;;;;25.73;14.45;;;;;;;;;;10515656;28;20036;-81
2023/03/12 08:10:35;;;;;;;34.85;16.75;;;;;;;;;;10522656;28;20035;-80
2023/03/12 08:15:56;;;;;;;27.05;15.02;;;;;;;;;;10509904;28;20044;-80
2023/03/12 08:21:17;;;;;;;40.90;17.88;;;;;;;;;;10506395;28;20037;-80
2023/03/12 08:26:38;;;;;;;32.97;16.13;;;;;;;;;;10518352;28;20032;-80
2023/03/12 08:31:59;;;;;;;29.80;14.98;;;;;;;;;;10510897;28;20036;-80
2023/03/12 08:37:21;;;;;;;34.17;17.10;;;;;;;;;;10506219;28;20039;-81
2023/03/12 08:42:43;;;;;;;30.38;16.23;;;;;;;;;;10507834;28;20040;-80
2023/03/12 08:48:05;;;;;;;26.58;16.33;;;;;;;;;;10499318;28;20028;-79
2023/03/12 08:53:26;;;;;;;23.50;14.82;;;;;;;;;;10495947;28;20839;-80
2023/03/12 08:58:47;;;;;;;35.15;17.30;;;;;;;;;;10475142;28;20036;-79
2023/03/12 09:04:08;;;;;;;47.80;22.73;;;;;;;;;;10536252;28;20044;-80
2023/03/12 09:09:29;;;;;;;27.40;16.40;;;;;;;;;;10520425;28;20486;-80
2023/03/12 09:14:50;;;;;;;33.33;18.90;;;;;;;;;;10506632;28;20036;-80
2023/03/12 09:20:13;;;;;;;37.30;21.58;;;;;;;;;;10536249;28;20031;-79
2023/03/12 09:25:33;;;;;;;39.90;19.38;;;;;;;;;;10491926;28;20032;-78
2023/03/12 09:30:54;;;;;;;55.35;25.75;;;;;;;;;;10488068;28;20035;-79
2023/03/12 09:36:15;;;;;;;58.35;24.10;;;;;;;;;;10499431;28;20044;-79
2023/03/12 09:41:38;;;;;;;57.08;24.42;;;;;;;;;;10513972;28;20041;-79
2023/03/12 09:47:02;;;;;;;63.80;26.98;;;;;;;;;;10518519;28;20032;-79
2023/03/12 09:52:26;;;;;;;62.10;28.25;;;;;;;;;;10495836;28;20055;-79
2023/03/12 09:57:49;;;;;;;60.28;24.20;;;;;;;;;;10512028;28;20040;-79
2023/03/12 10:03:28;;;;;;;59.25;24.98;;;;;;;;;;10505569;28;20039;-80
2023/03/12 10:08:49;;;;;;;66.72;27.10;;;;;;;;;;10515866;27;20501;-79
2023/03/12 10:14:20;;;;;;;62.35;25.08;;;;;;;;;;10512517;27;20032;-79
2023/03/12 10:19:41;;;;;;;66.07;29.23;;;;;;;;;;10524600;27;20043;-82
2023/03/12 10:25:34;;;;;;;46.85;22.42;;;;;;;;;;10513871;28;20393;-79
2023/03/12 10:31:00;;;;;;;49.90;22.60;;;;;;;;;;10506432;28;20020;-79
2023/03/12 10:36:36;;;;;;;46.42;21.23;;;;;;;;;;10519035;28;20046;-79
2023/03/12 10:41:59;;;;;;;47.67;25.65;;;;;;;;;;10520052;28;20036;-81
2023/03/12 10:47:34;;;;;;;55.83;25.25;;;;;;;;;;10510005;28;20051;-79
2023/03/12 10:53:10;;;;;;;53.03;22.13;;;;;;;;;;10539872;27;20052;-80
2023/03/12 10:58:41;;;;;;;41.33;21.00;;;;;;;;;;10496932;28;20044;-80
2023/03/12 11:04:02;;;;;;;;;;;;;;;;;;10537733;28;20031;-79
2023/03/12 11:09:23;;;;;;;46.53;23.92;;;;;;;;;;10540964;28;19912;-80
2023/03/12 11:14:45;;;;;;;44.92;18.42;;;;;;;;;;10522584;28;20032;-81
2023/03/12 11:20:32;;;;;;;41.65;18.65;;;;;;;;;;10522607;28;20038;-80
2023/03/12 11:26:00;;;;;;;40.20;17.10;;;;;;;;;;10502079;28;20040;-80
2023/03/12 11:31:23;;;;;;;44.42;18.35;;;;;;;;;;10521705;28;20431;-80
2023/03/12 11:36:50;;;;;;;40.20;17.65;;;;;;;;;;10520247;28;20024;-80
2023/03/12 11:42:16;;;;;;;45.80;20.48;;;;;;;;;;10518848;28;20051;-80
2023/03/12 11:47:44;;;;;;;42.97;18.48;;;;;;;;;;10506757;28;20043;-79
2023/03/12 11:53:17;;;;;;;47.13;18.58;;;;;;;;;;10525445;28;20048;-80
2023/03/12 11:58:52;;;;;;;42.60;16.70;;;;;;;;;;10537739;28;20515;-81
2023/03/12 12:04:28;;;;;;;50.03;19.38;;;;;;;;;;10526570;28;20040;-81
2023/03/12 12:10:01;;;;;;;36.55;17.05;;;;;;;;;;10487237;28;20040;-73
2023/03/12 12:15:24;;;;;;;44.97;17.33;;;;;;;;;;10497127;28;20032;-72
2023/03/12 12:20:48;;;;;;;34.05;12.60;;;;;;;;;;10509916;28;20032;-73
2023/03/12 12:26:13;;;;;;;40.97;15.63;;;;;;;;;;10515157;28;20032;-73
2023/03/12 12:31:34;;;;;;;33.13;12.32;;;;;;;;;;10528386;28;20043;-72
2023/03/12 12:37:09;;;;;;;30.83;10.07;;;;;;;;;;10567654;28;20042;-72
2023/03/12 12:42:33;;;;;;;31.38;9.38;;;;;;;;;;10551963;28;20484;-73
2023/03/12 12:48:06;;;;;;;27.35;9.88;;;;;;;;;;10530922;28;20377;-73
2023/03/12 12:53:27;;;;;;;32.55;10.55;;;;;;;;;;10534165;28;20408;-72
2023/03/12 12:59:02;;;;;;;29.42;9.80;;;;;;;;;;10554264;28;20039;-72
2023/03/12 13:04:34;;;;;;;27.02;10.57;;;;;;;;;;10533529;28;20032;-73
2023/03/12 13:09:57;;;;;;;33.13;10.77;;;;;;;;;;10523606;28;20040;-72
2023/03/12 13:15:30;;;;;;;26.63;10.13;;;;;;;;;;10520034;28;20042;-72
2023/03/12 13:20:51;;;;;;;32.08;10.55;;;;;;;;;;10535143;28;20039;-72
2023/03/12 13:26:27;;;;;;;23.20;9.10;;;;;;;;;;10527004;28;20039;-72
2023/03/12 13:31:48;;;;;;;26.33;9.48;;;;;;;;;;10525812;28;20044;-72
2023/03/12 13:37:38;;;;;;;30.45;9.10;;;;;;;;;;10525754;28;20035;-72
2023/03/12 13:43:15;;;;;;;30.55;8.63;;;;;;;;;;10504936;28;20047;-72
2023/03/12 13:48:43;;;;;;;20.50;8.18;;;;;;;;;;10549433;28;20024;-72
2023/03/12 13:54:04;;;;;;;32.60;9.13;;;;;;;;;;10521387;28;20060;-72
2023/03/12 13:59:26;;;;;;;42.53;10.25;;;;;;;;;;10511722;28;20048;-72
2023/03/12 14:04:46;;;;;;;28.85;8.02;;;;;;;;;;10484173;28;20512;-72
2023/03/12 14:10:26;;;;;;;24.58;8.57;;;;;;;;;;10503505;28;20493;-73
2023/03/12 14:15:59;;;;;;;41.58;11.45;;;;;;;;;;10503245;28;20068;-72
2023/03/12 14:21:20;;;;;;;30.85;9.07;;;;;;;;;;10513921;28;20032;-72
2023/03/12 14:26:44;;;;;;;40.42;9.98;;;;;;;;;;10502903;28;20424;-73
2023/03/12 14:32:11;;;;;;;36.92;10.05;;;;;;;;;;10503323;28;20032;-72
2023/03/12 14:37:37;;;;;;;36.72;11.13;;;;;;;;;;10511250;28;20029;-73
2023/03/12 14:43:01;;;;;;;57.00;20.10;;;;;;;;;;10519278;28;20040;-72
2023/03/12 14:48:23;;;;;;;36.10;10.77;;;;;;;;;;10516538;27;20059;-73
2023/03/12 14:53:43;;;;;;;34.88;10.30;;;;;;;;;;10523849;28;20040;-72
2023/03/12 14:59:21;;;;;;;25.48;8.45;;;;;;;;;;10483155;28;20032;-72
2023/03/12 15:04:42;;;;;;;34.90;10.32;;;;;;;;;;10502447;28;20037;-72
2023/03/12 15:10:15;;;;;;;33.63;9.95;;;;;;;;;;10509359;28;20063;-71
2023/03/12 15:15:44;;;;;;;30.30;9.27;;;;;;;;;;10507970;28;20027;-71
2023/03/12 15:21:06;;;;;;;23.17;8.00;;;;;;;;;;10501353;28;20036;-72
2023/03/12 15:26:29;;;;;;;36.67;9.93;;;;;;;;;;10488940;28;20040;-71
2023/03/12 15:31:49;;;;;;;39.45;10.88;;;;;;;;;;10497982;28;20039;-72
2023/03/12 15:37:23;;;;;;;32.15;9.35;;;;;;;;;;10512101;28;20028;-71
2023/03/12 15:42:45;;;;;;;30.25;9.52;;;;;;;;;;10502459;28;20449;-71
2023/03/12 15:48:24;;;;;;;36.10;9.98;;;;;;;;;;10509691;28;20036;-72
2023/03/12 15:53:45;;;;;;;29.10;9.65;;;;;;;;;;10522278;28;20557;-72
2023/03/12 15:59:15;;;;;;;33.13;9.73;;;;;;;;;;10506281;28;20029;-72
2023/03/12 16:04:36;;;;;;;34.60;8.77;;;;;;;;;;10516254;28;20113;-72
2023/03/12 16:09:57;;;;;;;30.95;9.32;;;;;;;;;;10534842;28;20696;-72
2023/03/12 16:15:21;;;;;;;26.35;8.68;;;;;;;;;;10534524;28;20047;-72
2023/03/12 16:20:42;;;;;;;36.35;10.40;;;;;;;;;;10528585;28;20442;-72
2023/03/12 16:26:04;;;;;;;35.58;9.90;;;;;;;;;;10520068;28;20117;-72
2023/03/12 16:31:25;;;;;;;32.67;9.55;;;;;;;;;;10521656;28;20024;-72
2023/03/12 16:36:46;;;;;;;37.72;9.35;;;;;;;;;;10515439;28;20039;-72
2023/03/12 16:42:14;;;;;;;36.47;9.07;;;;;;;;;;10505792;28;20060;-72
2023/03/12 16:47:36;;;;;;;36.83;10.98;;;;;;;;;;10522870;28;20029;-71
2023/03/12 16:52:57;;;;;;;34.90;10.13;;;;;;;;;;10533252;28;20039;-72
2023/03/12 16:58:18;;;;;;;33.88;9.70;;;;;;;;;;10530909;28;20036;-72
2023/03/12 17:03:45;;;;;;;23.88;8.40;;;;;;;;;;10530418;28;20043;-72
2023/03/12 17:09:07;;;;;;;36.80;10.23;;;;;;;;;;10532123;28;20032;-71
2023/03/12 17:14:29;;;;;;;48.75;11.48;;;;;;;;;;10530292;28;20035;-72
2023/03/12 17:19:50;;;;;;;31.48;9.13;;;;;;;;;;10523722;28;20077;-72
2023/03/12 17:25:25;;;;;;;38.47;10.77;;;;;;;;;;10516218;28;20051;-73
2023/03/12 17:30:46;;;;;;;38.63;11.10;;;;;;;;;;10493269;28;20036;-73
2023/03/12 17:36:08;;;;;;;41.58;12.00;;;;;;;;;;10512387;28;20796;-72
2023/03/12 17:41:30;;;;;;;35.42;10.68;;;;;;;;;;10520285;28;20036;-73
2023/03/12 17:46:51;;;;;;;50.70;11.98;;;;;;;;;;10505927;28;20032;-72
2023/03/12 17:52:12;;;;;;;39.50;11.70;;;;;;;;;;10520759;28;20500;-72
2023/03/12 17:57:33;;;;;;;34.10;10.80;;;;;;;;;;10507251;28;20044;-72
2023/03/12 18:02:54;;;;;;;46.70;12.82;;;;;;;;;;10522426;28;20039;-73
2023/03/12 18:08:15;;;;;;;44.65;11.23;;;;;;;;;;10512510;28;20036;-73
2023/03/12 18:13:36;;;;;;;44.75;12.35;;;;;;;;;;10472959;28;20032;-73
2023/03/12 18:18:57;;;;;;;48.47;12.60;;;;;;;;;;10502505;28;20044;-73
2023/03/12 18:24:18;;;;;;;52.85;11.88;;;;;;;;;;10515529;28;20105;-72
2023/03/12 18:29:40;;;;;;;43.20;11.82;;;;;;;;;;10523731;28;20043;-73
2023/03/12 18:35:00;;;;;;;41.08;10.73;;;;;;;;;;10502275;28;20114;-73
2023/03/12 18:40:22;;;;;;;45.45;11.05;;;;;;;;;;10505021;28;20028;-72
2023/03/12 18:45:43;;;;;;;45.05;11.82;;;;;;;;;;10507103;28;20066;-73
2023/03/12 18:51:04;;;;;;;42.55;11.68;;;;;;;;;;10499605;28;20055;-73
2023/03/12 18:56:25;;;;;;;46.05;11.65;;;;;;;;;;10484247;28;20216;-73
2023/03/12 19:01:46;;;;;;;49.33;11.18;;;;;;;;;;10499418;28;20036;-74
2023/03/12 19:07:07;;;;;;;45.70;11.35;;;;;;;;;;10507057;28;20033;-73
2023/03/12 19:12:28;;;;;;;42.03;10.60;;;;;;;;;;10494883;28;20114;-73
2023/03/12 19:17:49;;;;;;;47.13;12.38;;;;;;;;;;10500167;28;20036;-72
2023/03/12 19:23:10;;;;;;;39.45;10.35;;;;;;;;;;10501184;28;20555;-73
2023/03/12 19:28:32;;;;;;;43.35;11.68;;;;;;;;;;10479228;28;20074;-73
2023/03/12 19:33:53;;;;;;;47.10;12.00;;;;;;;;;;10498892;28;20372;-72
2023/03/12 19:39:14;;;;;;;42.83;11.30;;;;;;;;;;10498347;28;20031;-72
2023/03/12 19:44:37;;;;;;;61.65;13.20;;;;;;;;;;10504710;28;21431;-72
2023/03/12 19:49:59;;;;;;;51.20;11.45;;;;;;;;;;10499285;28;20046;-72
2023/03/12 19:55:20;;;;;;;42.33;11.23;;;;;;;;;;10494529;28;20073;-72
2023/03/12 20:00:41;;;;;;;49.03;12.27;;;;;;;;;;10494861;28;20082;-72
2023/03/12 20:06:03;;;;;;;53.72;12.10;;;;;;;;;;10493668;28;20043;-73
2023/03/12 20:11:23;;;;;;;41.38;10.88;;;;;;;;;;10504740;28;20036;-73
2023/03/12 20:16:44;;;;;;;29.63;8.90;;;;;;;;;;10501213;28;20036;-73
2023/03/12 20:22:05;;;;;;;43.17;9.98;;;;;;;;;;10496428;28;20036;-73
2023/03/12 20:27:26;;;;;;;35.20;10.13;;;;;;;;;;10504860;28;20398;-71
2023/03/12 20:32:47;;;;;;;47.50;11.57;;;;;;;;;;10495828;28;20266;-71
2023/03/12 20:38:08;;;;;;;43.85;11.52;;;;;;;;;;10499511;28;20045;-71
2023/03/12 20:43:29;;;;;;;38.90;11.07;;;;;;;;;;10488961;28;20040;-70
2023/03/12 20:48:50;;;;;;;49.97;11.60;;;;;;;;;;10488119;28;20040;-70
2023/03/12 20:54:11;;;;;;;37.35;11.13;;;;;;;;;;10501688;28;20041;-70
2023/03/12 20:59:32;;;;;;;36.88;9.25;;;;;;;;;;10508790;28;20025;-71
2023/03/12 21:04:53;;;;;;;26.95;8.95;;;;;;;;;;10503860;28;20048;-71
2023/03/12 21:10:14;;;;;;;38.97;11.30;;;;;;;;;;10512238;28;20035;-70
2023/03/12 21:15:35;;;;;;;42.50;9.90;;;;;;;;;;10511264;28;20051;-71
2023/03/12 21:21:03;;;;;;;42.70;11.25;;;;;;;;;;10509328;28;20028;-70
2023/03/12 21:26:24;;;;;;;40.58;10.82;;;;;;;;;;10509239;28;20047;-71
2023/03/12 21:31:44;;;;;;;35.90;10.55;;;;;;;;;;10497467;28;20043;-70
2023/03/12 21:37:05;;;;;;;32.72;9.38;;;;;;;;;;10503899;28;20404;-70
2023/03/12 21:42:27;;;;;;;39.05;12.15;;;;;;;;;;10509093;28;20032;-71
2023/03/12 21:47:48;;;;;;;41.35;11.15;;;;;;;;;;10507014;28;20067;-70
2023/03/12 21:53:09;;;;;;;25.92;9.43;;;;;;;;;;10498744;28;20052;-70
2023/03/12 21:58:30;;;;;;;41.92;11.85;;;;;;;;;;10500857;28;20039;-71
2023/03/12 22:03:51;;;;;;;45.90;11.95;;;;;;;;;;10503387;28;20039;-70
2023/03/12 22:09:12;;;;;;;30.67;10.70;;;;;;;;;;10497999;28;20037;-71
2023/03/12 22:14:33;;;;;;;37.13;10.73;;;;;;;;;;10497772;28;20493;-70
2023/03/12 22:19:54;;;;;;;36.00;10.63;;;;;;;;;;10507850;28;20043;-70
2023/03/12 22:25:15;;;;;;;38.63;11.07;;;;;;;;;;10482782;28;20036;-71
2023/03/12 22:30:36;;;;;;;37.25;9.35;;;;;;;;;;10511237;28;20529;-70
2023/03/12 22:35:57;;;;;;;25.17;8.95;;;;;;;;;;10520220;28;20042;-70
2023/03/12 22:41:18;;;;;;;46.92;13.98;;;;;;;;;;10503286;28;20031;-70
2023/03/12 22:46:39;;;;;;;33.03;9.73;;;;;;;;;;10504673;28;20036;-70
2023/03/12 22:52:00;;;;;;;20.38;8.45;;;;;;;;;;10508602;28;20041;-71
2023/03/12 22:57:21;;;;;;;37.53;12.90;;;;;;;;;;10504476;28;20036;-70
2023/03/12 23:02:42;;;;;;;44.78;13.30;;;;;;;;;;10472020;28;20043;-70
2023/03/12 23:08:02;;;;;;;33.20;10.48;;;;;;;;;;10490095;28;20071;-71
2023/03/12 23:13:24;;;;;;;29.00;8.93;;;;;;;;;;10492872;28;20040;-70
2023/03/12 23:18:46;;;;;;;36.17;11.52;;;;;;;;;;10485051;28;20027;-69
2023/03/12 23:24:07;;;;;;;35.88;10.60;;;;;;;;;;10495290;28;20075;-69
2023/03/12 23:29:28;;;;;;;28.88;9.63;;;;;;;;;;10493168;28;20553;-70
2023/03/12 23:34:49;;;;;;;34.97;9.93;;;;;;;;;;10497162;28;20032;-72
2023/03/12 23:40:10;;;;;;;36.15;11.52;;;;;;;;;;10496680;28;20047;-70
2023/03/12 23:45:31;;;;;;;34.95;9.82;;;;;;;;;;10493610;28;20043;-71
2023/03/12 23:50:52;;;;;;;35.22;11.15;;;;;;;;;;10483702;28;20501;-71
2023/03/12 23:56:15;;;;;;;35.63;10.65;;;;;;;;;;10479305;28;20032;-70
